sensor_id;sensor_type;location;lat;lon;timestamp;temperature;humidity
11107;DHT22;5607;48.302;14.294;2023-09-18T00:00:11;21.10;99.90
11107;DHT22;5607;48.302;14.294;2023-09-18T00:02:58;21.00;99.90
11107;DHT22;5607;48.302;14.294;2023-09-18T00:05:44;20.90;99.90
11107;DHT22;5607;48.302;14.294;2023-09-18T00:08:32;20.90;99.90
11107;DHT22;5607;48.302;14.294;2023-09-18T00:11:18;20.90;99.90
11107;DHT22;5607;48.302;14.294;2023-09-18T00:14:04;20.90;99.90
11107;DHT22;5607;48.302;14.294;2023-09-18T00:16:50;20.90;99.90
11107;DHT22;5607;48.302;14.294;2023-09-18T00:19:37;20.80;99.90
11107;DHT22;5607;48.302;14.294;2023-09-18T00:22:24;20.90;99.90
11107;DHT22;5607;48.302;14.294;2023-09-18T00:25:10;20.80;99.90
11107;DHT22;5607;48.302;14.294;2023-09-18T00:27:57;20.80;99.90
11107;DHT22;5607;48.302;14.294;2023-09-18T00:30:46;20.80;99.90
11107;DHT22;5607;48.302;14.294;2023-09-18T00:33:33;20.70;99.90
11107;DHT22;5607;48.302;14.294;2023-09-18T00:36:20;20.70;99.90
11107;DHT22;5607;48.302;14.294;2023-09-18T00:39:06;20.70;99.90
11107;DHT22;5607;48.302;14.294;2023-09-18T00:41:52;20.70;99.90
11107;DHT22;5607;48.302;14.294;2023-09-18T00:44:40;20.70;99.90
11107;DHT22;5607;48.302;14.294;2023-09-18T00:47:27;20.50;99.90
11107;DHT22;5607;48.302;14.294;2023-09-18T00:50:14;20.50;99.90
11107;DHT22;5607;48.302;14.294;2023-09-18T00:53:00;20.60;99.90
11107;DHT22;5607;48.302;14.294;2023-09-18T00:55:47;20.50;99.90
11107;DHT22;5607;48.302;14.294;2023-09-18T00:58:33;20.50;99.90
11107;DHT22;5607;48.302;14.294;2023-09-18T01:01:20;20.40;99.90
11107;DHT22;5607;48.302;14.294;2023-09-18T01:04:09;20.40;99.90
11107;DHT22;5607;48.302;14.294;2023-09-18T01:06:55;20.40;99.90
11107;DHT22;5607;48.302;14.294;2023-09-18T01:09:44;20.30;99.90
11107;DHT22;5607;48.302;14.294;2023-09-18T01:12:33;20.40;99.90
11107;DHT22;5607;48.302;14.294;2023-09-18T01:15:32;20.30;99.90
11107;DHT22;5607;48.302;14.294;2023-09-18T01:18:21;20.30;99.90
11107;DHT22;5607;48.302;14.294;2023-09-18T01:21:07;20.20;99.90
11107;DHT22;5607;48.302;14.294;2023-09-18T01:23:53;20.20;99.90
11107;DHT22;5607;48.302;14.294;2023-09-18T01:26:40;20.20;99.90
11107;DHT22;5607;48.302;14.294;2023-09-18T01:29:26;20.00;99.90
11107;DHT22;5607;48.302;14.294;2023-09-18T01:32:12;20.00;99.90
11107;DHT22;5607;48.302;14.294;2023-09-18T01:34:59;20.00;99.90
11107;DHT22;5607;48.302;14.294;2023-09-18T01:37:46;19.90;99.90
11107;DHT22;5607;48.302;14.294;2023-09-18T01:40:32;19.80;99.90
11107;DHT22;5607;48.302;14.294;2023-09-18T01:43:19;19.90;99.90
11107;DHT22;5607;48.302;14.294;2023-09-18T01:46:05;19.90;99.90
11107;DHT22;5607;48.302;14.294;2023-09-18T01:48:51;19.90;99.90
11107;DHT22;5607;48.302;14.294;2023-09-18T01:51:38;19.90;99.90
11107;DHT22;5607;48.302;14.294;2023-09-18T01:54:24;19.80;99.90
11107;DHT22;5607;48.302;14.294;2023-09-18T01:57:11;19.80;99.90
11107;DHT22;5607;48.302;14.294;2023-09-18T01:59:58;19.80;99.90
11107;DHT22;5607;48.302;14.294;2023-09-18T02:02:44;19.90;99.90
11107;DHT22;5607;48.302;14.294;2023-09-18T02:05:30;19.80;99.90
11107;DHT22;5607;48.302;14.294;2023-09-18T02:08:17;19.70;99.90
11107;DHT22;5607;48.302;14.294;2023-09-18T02:11:03;19.70;99.90
11107;DHT22;5607;48.302;14.294;2023-09-18T02:13:50;19.70;99.90
11107;DHT22;5607;48.302;14.294;2023-09-18T02:16:37;19.70;99.90
11107;DHT22;5607;48.302;14.294;2023-09-18T02:19:23;19.70;99.90
11107;DHT22;5607;48.302;14.294;2023-09-18T02:22:10;19.70;99.90
11107;DHT22;5607;48.302;14.294;2023-09-18T02:24:56;19.70;99.90
11107;DHT22;5607;48.302;14.294;2023-09-18T02:27:44;19.60;99.90
11107;DHT22;5607;48.302;14.294;2023-09-18T02:30:30;19.60;99.90
11107;DHT22;5607;48.302;14.294;2023-09-18T02:33:16;19.60;99.90
11107;DHT22;5607;48.302;14.294;2023-09-18T02:36:03;19.60;99.90
11107;DHT22;5607;48.302;14.294;2023-09-18T02:38:49;19.60;99.90
11107;DHT22;5607;48.302;14.294;2023-09-18T02:41:35;19.50;99.90
11107;DHT22;5607;48.302;14.294;2023-09-18T02:44:21;19.50;99.90
11107;DHT22;5607;48.302;14.294;2023-09-18T02:47:08;19.40;99.90
11107;DHT22;5607;48.302;14.294;2023-09-18T02:49:54;19.30;99.90
11107;DHT22;5607;48.302;14.294;2023-09-18T02:52:40;19.20;99.90
11107;DHT22;5607;48.302;14.294;2023-09-18T02:55:27;19.20;99.90
11107;DHT22;5607;48.302;14.294;2023-09-18T02:58:13;19.20;99.90
11107;DHT22;5607;48.302;14.294;2023-09-18T03:00:59;19.20;99.90
11107;DHT22;5607;48.302;14.294;2023-09-18T03:03:46;19.20;1.00
11107;DHT22;5607;48.302;14.294;2023-09-18T03:06:32;19.10;1.00
11107;DHT22;5607;48.302;14.294;2023-09-18T03:09:18;19.10;99.90
11107;DHT22;5607;48.302;14.294;2023-09-18T03:12:05;19.10;99.90
11107;DHT22;5607;48.302;14.294;2023-09-18T03:14:51;19.10;1.00
11107;DHT22;5607;48.302;14.294;2023-09-18T03:17:37;19.10;1.00
11107;DHT22;5607;48.302;14.294;2023-09-18T03:20:24;19.20;99.90
11107;DHT22;5607;48.302;14.294;2023-09-18T03:23:10;19.20;99.90
11107;DHT22;5607;48.302;14.294;2023-09-18T03:25:56;19.20;99.90
11107;DHT22;5607;48.302;14.294;2023-09-18T03:28:42;19.10;99.90
11107;DHT22;5607;48.302;14.294;2023-09-18T03:31:29;19.10;99.90
11107;DHT22;5607;48.302;14.294;2023-09-18T03:34:15;19.10;99.90
11107;DHT22;5607;48.302;14.294;2023-09-18T03:37:02;19.10;99.90
11107;DHT22;5607;48.302;14.294;2023-09-18T03:39:48;19.20;99.90
11107;DHT22;5607;48.302;14.294;2023-09-18T03:42:34;19.20;99.90
11107;DHT22;5607;48.302;14.294;2023-09-18T03:45:21;19.20;99.90
11107;DHT22;5607;48.302;14.294;2023-09-18T03:48:07;19.20;99.90
11107;DHT22;5607;48.302;14.294;2023-09-18T03:50:53;19.20;99.90
11107;DHT22;5607;48.302;14.294;2023-09-18T03:53:39;19.20;99.90
11107;DHT22;5607;48.302;14.294;2023-09-18T03:56:26;19.10;99.90
11107;DHT22;5607;48.302;14.294;2023-09-18T03:59:13;19.10;99.90
11107;DHT22;5607;48.302;14.294;2023-09-18T04:01:59;19.00;99.90
11107;DHT22;5607;48.302;14.294;2023-09-18T04:04:45;19.00;99.90
11107;DHT22;5607;48.302;14.294;2023-09-18T04:07:32;19.00;99.90
11107;DHT22;5607;48.302;14.294;2023-09-18T04:10:19;19.00;99.90
11107;DHT22;5607;48.302;14.294;2023-09-18T04:13:08;19.00;99.90
11107;DHT22;5607;48.302;14.294;2023-09-18T04:15:55;18.90;99.90
11107;DHT22;5607;48.302;14.294;2023-09-18T04:18:42;18.90;99.90
11107;DHT22;5607;48.302;14.294;2023-09-18T04:21:29;18.90;99.90
11107;DHT22;5607;48.302;14.294;2023-09-18T04:24:15;18.80;99.90
11107;DHT22;5607;48.302;14.294;2023-09-18T04:27:02;18.80;1.00
11107;DHT22;5607;48.302;14.294;2023-09-18T04:29:48;18.70;1.00
11107;DHT22;5607;48.302;14.294;2023-09-18T04:32:37;18.80;1.00
11107;DHT22;5607;48.302;14.294;2023-09-18T04:35:23;18.70;1.00
11107;DHT22;5607;48.302;14.294;2023-09-18T04:38:11;18.70;1.00
11107;DHT22;5607;48.302;14.294;2023-09-18T04:41:00;18.70;99.90
11107;DHT22;5607;48.302;14.294;2023-09-18T04:43:46;18.70;99.90
11107;DHT22;5607;48.302;14.294;2023-09-18T04:46:33;18.70;99.90
11107;DHT22;5607;48.302;14.294;2023-09-18T04:49:21;18.80;99.90
11107;DHT22;5607;48.302;14.294;2023-09-18T04:52:09;18.80;99.90
11107;DHT22;5607;48.302;14.294;2023-09-18T04:54:56;18.80;99.90
11107;DHT22;5607;48.302;14.294;2023-09-18T04:57:43;18.80;99.90
11107;DHT22;5607;48.302;14.294;2023-09-18T05:00:29;18.90;99.90
11107;DHT22;5607;48.302;14.294;2023-09-18T05:03:17;18.80;99.90
11107;DHT22;5607;48.302;14.294;2023-09-18T05:06:03;18.80;99.90
11107;DHT22;5607;48.302;14.294;2023-09-18T05:08:51;18.90;99.90
11107;DHT22;5607;48.302;14.294;2023-09-18T05:11:37;18.90;99.90
11107;DHT22;5607;48.302;14.294;2023-09-18T05:14:24;18.90;99.90
11107;DHT22;5607;48.302;14.294;2023-09-18T05:17:15;18.90;99.90
11107;DHT22;5607;48.302;14.294;2023-09-18T05:20:01;18.90;99.90
11107;DHT22;5607;48.302;14.294;2023-09-18T05:22:48;18.90;99.90
11107;DHT22;5607;48.302;14.294;2023-09-18T05:25:34;18.90;99.90
11107;DHT22;5607;48.302;14.294;2023-09-18T05:28:23;19.00;99.90
11107;DHT22;5607;48.302;14.294;2023-09-18T05:31:10;18.90;99.90
11107;DHT22;5607;48.302;14.294;2023-09-18T05:33:56;19.00;99.90
11107;DHT22;5607;48.302;14.294;2023-09-18T05:36:42;19.00;99.90
11107;DHT22;5607;48.302;14.294;2023-09-18T05:39:29;19.00;99.90
11107;DHT22;5607;48.302;14.294;2023-09-18T05:42:15;19.00;99.90
11107;DHT22;5607;48.302;14.294;2023-09-18T05:45:02;19.10;99.90
11107;DHT22;5607;48.302;14.294;2023-09-18T05:47:50;19.10;99.90
11107;DHT22;5607;48.302;14.294;2023-09-18T05:50:37;19.10;99.90
11107;DHT22;5607;48.302;14.294;2023-09-18T05:53:24;19.20;99.90
11107;DHT22;5607;48.302;14.294;2023-09-18T05:56:10;19.30;99.90
11107;DHT22;5607;48.302;14.294;2023-09-18T05:58:56;19.40;99.90
11107;DHT22;5607;48.302;14.294;2023-09-18T06:01:42;19.50;99.90
11107;DHT22;5607;48.302;14.294;2023-09-18T06:04:29;19.60;99.90
11107;DHT22;5607;48.302;14.294;2023-09-18T06:07:16;19.60;99.90
11107;DHT22;5607;48.302;14.294;2023-09-18T06:10:02;19.70;99.90
11107;DHT22;5607;48.302;14.294;2023-09-18T06:12:49;19.80;99.90
11107;DHT22;5607;48.302;14.294;2023-09-18T06:15:35;19.80;99.90
11107;DHT22;5607;48.302;14.294;2023-09-18T06:18:21;19.80;99.90
11107;DHT22;5607;48.302;14.294;2023-09-18T06:21:08;19.90;99.90
11107;DHT22;5607;48.302;14.294;2023-09-18T06:23:54;19.90;99.90
11107;DHT22;5607;48.302;14.294;2023-09-18T06:26:40;19.90;99.90
11107;DHT22;5607;48.302;14.294;2023-09-18T06:29:26;20.00;99.90
11107;DHT22;5607;48.302;14.294;2023-09-18T06:32:13;20.00;99.90
11107;DHT22;5607;48.302;14.294;2023-09-18T06:34:59;20.10;99.90
11107;DHT22;5607;48.302;14.294;2023-09-18T06:37:46;20.20;99.90
11107;DHT22;5607;48.302;14.294;2023-09-18T06:40:32;20.40;99.90
11107;DHT22;5607;48.302;14.294;2023-09-18T06:43:18;20.50;99.90
11107;DHT22;5607;48.302;14.294;2023-09-18T06:46:06;20.50;99.90
11107;DHT22;5607;48.302;14.294;2023-09-18T06:48:52;20.60;99.90
11107;DHT22;5607;48.302;14.294;2023-09-18T06:51:39;20.60;99.90
11107;DHT22;5607;48.302;14.294;2023-09-18T06:54:25;20.70;99.90
11107;DHT22;5607;48.302;14.294;2023-09-18T06:57:11;20.80;99.90
11107;DHT22;5607;48.302;14.294;2023-09-18T06:59:58;20.90;99.90
11107;DHT22;5607;48.302;14.294;2023-09-18T07:02:44;20.90;99.90
11107;DHT22;5607;48.302;14.294;2023-09-18T07:05:30;20.90;99.90
11107;DHT22;5607;48.302;14.294;2023-09-18T07:08:17;21.10;99.90
11107;DHT22;5607;48.302;14.294;2023-09-18T07:11:05;21.30;99.90
11107;DHT22;5607;48.302;14.294;2023-09-18T07:13:51;21.40;99.90
11107;DHT22;5607;48.302;14.294;2023-09-18T07:16:38;21.60;99.90
11107;DHT22;5607;48.302;14.294;2023-09-18T07:19:24;21.80;99.90
11107;DHT22;5607;48.302;14.294;2023-09-18T07:22:10;22.00;99.90
11107;DHT22;5607;48.302;14.294;2023-09-18T07:24:56;22.20;99.90
11107;DHT22;5607;48.302;14.294;2023-09-18T07:27:42;22.50;99.90
11107;DHT22;5607;48.302;14.294;2023-09-18T07:30:32;22.70;99.90
11107;DHT22;5607;48.302;14.294;2023-09-18T07:33:19;22.80;99.90
11107;DHT22;5607;48.302;14.294;2023-09-18T07:36:06;22.70;99.90
11107;DHT22;5607;48.302;14.294;2023-09-18T07:38:52;22.60;99.90
11107;DHT22;5607;48.302;14.294;2023-09-18T07:41:40;22.40;99.90
11107;DHT22;5607;48.302;14.294;2023-09-18T07:44:26;22.40;99.90
11107;DHT22;5607;48.302;14.294;2023-09-18T07:47:12;22.70;99.90
11107;DHT22;5607;48.302;14.294;2023-09-18T07:49:59;23.00;99.90
11107;DHT22;5607;48.302;14.294;2023-09-18T07:52:45;23.10;99.90
11107;DHT22;5607;48.302;14.294;2023-09-18T07:55:31;23.00;99.90
11107;DHT22;5607;48.302;14.294;2023-09-18T07:58:17;23.10;99.90
11107;DHT22;5607;48.302;14.294;2023-09-18T08:01:06;23.30;99.90
11107;DHT22;5607;48.302;14.294;2023-09-18T08:03:52;23.60;99.90
11107;DHT22;5607;48.302;14.294;2023-09-18T08:06:39;23.90;99.90
11107;DHT22;5607;48.302;14.294;2023-09-18T08:09:27;24.20;99.90
11107;DHT22;5607;48.302;14.294;2023-09-18T08:12:15;24.30;99.90
11107;DHT22;5607;48.302;14.294;2023-09-18T08:15:03;24.20;99.90
11107;DHT22;5607;48.302;14.294;2023-09-18T08:17:51;24.30;99.90
11107;DHT22;5607;48.302;14.294;2023-09-18T08:20:41;24.20;99.90
11107;DHT22;5607;48.302;14.294;2023-09-18T08:23:28;24.20;99.90
11107;DHT22;5607;48.302;14.294;2023-09-18T08:26:14;24.10;99.90
11107;DHT22;5607;48.302;14.294;2023-09-18T08:29:02;24.30;99.90
11107;DHT22;5607;48.302;14.294;2023-09-18T08:31:48;24.40;99.90
11107;DHT22;5607;48.302;14.294;2023-09-18T08:34:35;24.40;99.90
11107;DHT22;5607;48.302;14.294;2023-09-18T08:37:21;24.50;99.90
11107;DHT22;5607;48.302;14.294;2023-09-18T08:40:11;24.80;99.90
11107;DHT22;5607;48.302;14.294;2023-09-18T08:42:59;24.90;99.90
11107;DHT22;5607;48.302;14.294;2023-09-18T08:45:47;24.90;99.90
11107;DHT22;5607;48.302;14.294;2023-09-18T08:48:37;25.10;99.90
11107;DHT22;5607;48.302;14.294;2023-09-18T08:51:23;25.30;99.90
11107;DHT22;5607;48.302;14.294;2023-09-18T08:54:10;25.30;99.90
11107;DHT22;5607;48.302;14.294;2023-09-18T08:56:56;25.40;99.90
11107;DHT22;5607;48.302;14.294;2023-09-18T08:59:42;25.60;99.90
11107;DHT22;5607;48.302;14.294;2023-09-18T09:02:29;25.50;99.90
11107;DHT22;5607;48.302;14.294;2023-09-18T09:05:16;25.50;99.90
11107;DHT22;5607;48.302;14.294;2023-09-18T09:08:02;25.60;99.90
11107;DHT22;5607;48.302;14.294;2023-09-18T09:10:49;25.60;99.90
11107;DHT22;5607;48.302;14.294;2023-09-18T09:13:36;25.70;99.90
11107;DHT22;5607;48.302;14.294;2023-09-18T09:16:22;25.80;99.90
11107;DHT22;5607;48.302;14.294;2023-09-18T09:19:08;25.80;99.90
11107;DHT22;5607;48.302;14.294;2023-09-18T09:21:55;25.90;99.90
11107;DHT22;5607;48.302;14.294;2023-09-18T09:24:42;26.00;99.90
11107;DHT22;5607;48.302;14.294;2023-09-18T09:27:40;26.00;99.90
11107;DHT22;5607;48.302;14.294;2023-09-18T09:30:28;26.00;99.90
11107;DHT22;5607;48.302;14.294;2023-09-18T09:33:14;26.10;99.90
11107;DHT22;5607;48.302;14.294;2023-09-18T09:36:03;26.10;99.90
11107;DHT22;5607;48.302;14.294;2023-09-18T09:38:56;26.10;99.90
11107;DHT22;5607;48.302;14.294;2023-09-18T09:41:46;26.00;99.90
11107;DHT22;5607;48.302;14.294;2023-09-18T09:44:33;26.00;99.90
11107;DHT22;5607;48.302;14.294;2023-09-18T09:47:19;25.90;99.90
11107;DHT22;5607;48.302;14.294;2023-09-18T09:50:12;26.00;99.90
11107;DHT22;5607;48.302;14.294;2023-09-18T09:52:59;26.00;99.90
11107;DHT22;5607;48.302;14.294;2023-09-18T09:55:51;26.00;99.90
11107;DHT22;5607;48.302;14.294;2023-09-18T09:58:39;25.90;99.90
11107;DHT22;5607;48.302;14.294;2023-09-18T10:01:30;25.90;99.90
11107;DHT22;5607;48.302;14.294;2023-09-18T10:04:17;26.00;99.90
11107;DHT22;5607;48.302;14.294;2023-09-18T10:07:07;26.00;99.90
11107;DHT22;5607;48.302;14.294;2023-09-18T10:09:54;26.00;99.90
11107;DHT22;5607;48.302;14.294;2023-09-18T10:12:41;26.10;99.90
11107;DHT22;5607;48.302;14.294;2023-09-18T10:15:27;26.10;99.90
11107;DHT22;5607;48.302;14.294;2023-09-18T10:18:24;26.20;99.90
11107;DHT22;5607;48.302;14.294;2023-09-18T10:21:14;26.30;99.90
11107;DHT22;5607;48.302;14.294;2023-09-18T10:26:59;26.60;99.90
11107;DHT22;5607;48.302;14.294;2023-09-18T10:29:47;26.60;99.90
11107;DHT22;5607;48.302;14.294;2023-09-18T10:32:35;26.60;99.90
11107;DHT22;5607;48.302;14.294;2023-09-18T10:35:21;26.50;99.90
11107;DHT22;5607;48.302;14.294;2023-09-18T10:38:08;26.60;99.90
11107;DHT22;5607;48.302;14.294;2023-09-18T10:40:55;26.60;99.90
11107;DHT22;5607;48.302;14.294;2023-09-18T10:43:43;26.60;99.90
11107;DHT22;5607;48.302;14.294;2023-09-18T10:46:30;26.60;99.90
11107;DHT22;5607;48.302;14.294;2023-09-18T10:49:16;26.70;99.90
11107;DHT22;5607;48.302;14.294;2023-09-18T10:52:02;26.80;99.90
11107;DHT22;5607;48.302;14.294;2023-09-18T10:54:50;26.70;99.90
11107;DHT22;5607;48.302;14.294;2023-09-18T10:57:36;26.70;99.90
11107;DHT22;5607;48.302;14.294;2023-09-18T11:00:24;26.70;99.90
11107;DHT22;5607;48.302;14.294;2023-09-18T11:03:17;26.90;99.90
11107;DHT22;5607;48.302;14.294;2023-09-18T11:06:05;27.00;99.90
11107;DHT22;5607;48.302;14.294;2023-09-18T11:08:51;27.10;99.90
11107;DHT22;5607;48.302;14.294;2023-09-18T11:11:39;27.20;99.90
11107;DHT22;5607;48.302;14.294;2023-09-18T11:14:45;27.20;99.90
11107;DHT22;5607;48.302;14.294;2023-09-18T11:17:35;27.20;99.90
11107;DHT22;5607;48.302;14.294;2023-09-18T11:20:25;27.30;99.90
11107;DHT22;5607;48.302;14.294;2023-09-18T11:23:16;27.30;99.90
11107;DHT22;5607;48.302;14.294;2023-09-18T11:26:04;27.50;99.90
11107;DHT22;5607;48.302;14.294;2023-09-18T11:28:52;27.60;99.90
11107;DHT22;5607;48.302;14.294;2023-09-18T11:31:48;27.70;99.90
11107;DHT22;5607;48.302;14.294;2023-09-18T11:34:36;27.80;99.90
11107;DHT22;5607;48.302;14.294;2023-09-18T11:37:28;27.90;99.90
11107;DHT22;5607;48.302;14.294;2023-09-18T11:40:30;28.00;99.90
11107;DHT22;5607;48.302;14.294;2023-09-18T11:46:09;28.30;99.90
11107;DHT22;5607;48.302;14.294;2023-09-18T11:48:56;28.40;99.90
11107;DHT22;5607;48.302;14.294;2023-09-18T11:51:43;28.20;99.90
11107;DHT22;5607;48.302;14.294;2023-09-18T11:54:29;28.10;99.90
11107;DHT22;5607;48.302;14.294;2023-09-18T11:57:17;28.20;99.90
11107;DHT22;5607;48.302;14.294;2023-09-18T12:00:05;28.40;99.90
11107;DHT22;5607;48.302;14.294;2023-09-18T12:02:58;28.50;99.90
11107;DHT22;5607;48.302;14.294;2023-09-18T12:05:59;28.60;99.90
11107;DHT22;5607;48.302;14.294;2023-09-18T12:08:46;28.50;99.90
11107;DHT22;5607;48.302;14.294;2023-09-18T12:11:33;28.60;99.90
11107;DHT22;5607;48.302;14.294;2023-09-18T12:14:27;28.50;99.90
11107;DHT22;5607;48.302;14.294;2023-09-18T12:17:16;28.50;99.90
11107;DHT22;5607;48.302;14.294;2023-09-18T12:20:02;28.50;99.90
11107;DHT22;5607;48.302;14.294;2023-09-18T12:22:50;28.60;99.90
11107;DHT22;5607;48.302;14.294;2023-09-18T12:25:36;28.80;99.90
11107;DHT22;5607;48.302;14.294;2023-09-18T12:28:24;29.00;99.90
11107;DHT22;5607;48.302;14.294;2023-09-18T12:31:11;29.00;99.90
11107;DHT22;5607;48.302;14.294;2023-09-18T12:33:57;29.40;99.90
11107;DHT22;5607;48.302;14.294;2023-09-18T12:36:44;29.50;99.90
11107;DHT22;5607;48.302;14.294;2023-09-18T12:39:34;29.20;99.90
11107;DHT22;5607;48.302;14.294;2023-09-18T12:42:20;28.80;99.90
11107;DHT22;5607;48.302;14.294;2023-09-18T12:45:07;28.90;99.90
11107;DHT22;5607;48.302;14.294;2023-09-18T12:47:54;29.10;99.90
11107;DHT22;5607;48.302;14.294;2023-09-18T12:50:41;29.40;99.90
11107;DHT22;5607;48.302;14.294;2023-09-18T12:53:27;29.50;99.90
11107;DHT22;5607;48.302;14.294;2023-09-18T12:56:13;29.20;99.90
11107;DHT22;5607;48.302;14.294;2023-09-18T12:59:00;29.10;99.90
11107;DHT22;5607;48.302;14.294;2023-09-18T13:01:46;29.30;99.90
11107;DHT22;5607;48.302;14.294;2023-09-18T13:04:34;29.30;99.90
11107;DHT22;5607;48.302;14.294;2023-09-18T13:07:23;29.10;99.90
11107;DHT22;5607;48.302;14.294;2023-09-18T13:10:09;29.00;99.90
11107;DHT22;5607;48.302;14.294;2023-09-18T13:13:01;29.40;99.90
11107;DHT22;5607;48.302;14.294;2023-09-18T13:15:49;29.80;99.90
11107;DHT22;5607;48.302;14.294;2023-09-18T13:18:35;30.00;99.90
11107;DHT22;5607;48.302;14.294;2023-09-18T13:21:22;29.90;99.90
11107;DHT22;5607;48.302;14.294;2023-09-18T13:24:23;30.20;99.90
11107;DHT22;5607;48.302;14.294;2023-09-18T13:27:10;30.10;99.90
11107;DHT22;5607;48.302;14.294;2023-09-18T13:29:56;30.10;99.90
11107;DHT22;5607;48.302;14.294;2023-09-18T13:32:44;30.10;99.90
11107;DHT22;5607;48.302;14.294;2023-09-18T13:35:30;30.20;99.90
11107;DHT22;5607;48.302;14.294;2023-09-18T13:38:16;29.90;99.90
11107;DHT22;5607;48.302;14.294;2023-09-18T13:41:03;29.70;99.90
11107;DHT22;5607;48.302;14.294;2023-09-18T13:43:51;29.70;99.90
11107;DHT22;5607;48.302;14.294;2023-09-18T13:46:41;29.80;99.90
11107;DHT22;5607;48.302;14.294;2023-09-18T13:49:27;29.80;99.90
11107;DHT22;5607;48.302;14.294;2023-09-18T13:52:14;29.40;99.90
11107;DHT22;5607;48.302;14.294;2023-09-18T13:55:01;29.70;99.90
11107;DHT22;5607;48.302;14.294;2023-09-18T13:57:48;29.40;99.90
11107;DHT22;5607;48.302;14.294;2023-09-18T14:00:34;29.40;99.90
11107;DHT22;5607;48.302;14.294;2023-09-18T14:03:21;29.50;99.90
11107;DHT22;5607;48.302;14.294;2023-09-18T14:06:09;29.40;99.90
11107;DHT22;5607;48.302;14.294;2023-09-18T14:08:56;29.60;99.90
11107;DHT22;5607;48.302;14.294;2023-09-18T14:11:42;29.40;99.90
11107;DHT22;5607;48.302;14.294;2023-09-18T14:14:29;28.90;99.90
11107;DHT22;5607;48.302;14.294;2023-09-18T14:17:15;28.40;99.90
11107;DHT22;5607;48.302;14.294;2023-09-18T14:20:04;27.90;99.90
11107;DHT22;5607;48.302;14.294;2023-09-18T14:22:53;27.80;99.90
11107;DHT22;5607;48.302;14.294;2023-09-18T14:25:39;27.70;99.90
11107;DHT22;5607;48.302;14.294;2023-09-18T14:28:27;27.70;99.90
11107;DHT22;5607;48.302;14.294;2023-09-18T14:31:13;27.40;99.90
11107;DHT22;5607;48.302;14.294;2023-09-18T14:33:59;27.40;99.90
11107;DHT22;5607;48.302;14.294;2023-09-18T14:36:46;27.50;99.90
11107;DHT22;5607;48.302;14.294;2023-09-18T14:39:32;27.40;99.90
11107;DHT22;5607;48.302;14.294;2023-09-18T14:42:18;27.40;99.90
11107;DHT22;5607;48.302;14.294;2023-09-18T14:45:05;27.30;99.90
11107;DHT22;5607;48.302;14.294;2023-09-18T14:47:51;27.20;99.90
11107;DHT22;5607;48.302;14.294;2023-09-18T14:50:37;27.00;99.90
11107;DHT22;5607;48.302;14.294;2023-09-18T14:53:24;27.00;99.90
11107;DHT22;5607;48.302;14.294;2023-09-18T14:56:10;27.10;99.90
11107;DHT22;5607;48.302;14.294;2023-09-18T14:58:56;27.30;99.90
11107;DHT22;5607;48.302;14.294;2023-09-18T15:01:43;27.30;99.90
11107;DHT22;5607;48.302;14.294;2023-09-18T15:04:31;27.20;99.90
11107;DHT22;5607;48.302;14.294;2023-09-18T15:07:18;27.00;99.90
11107;DHT22;5607;48.302;14.294;2023-09-18T15:10:05;26.90;99.90
11107;DHT22;5607;48.302;14.294;2023-09-18T15:12:51;26.70;99.90
11107;DHT22;5607;48.302;14.294;2023-09-18T15:15:37;26.50;99.90
11107;DHT22;5607;48.302;14.294;2023-09-18T15:18:25;26.30;99.90
11107;DHT22;5607;48.302;14.294;2023-09-18T15:21:11;26.40;99.90
11107;DHT22;5607;48.302;14.294;2023-09-18T15:23:57;26.30;99.90
11107;DHT22;5607;48.302;14.294;2023-09-18T15:26:44;26.20;99.90
11107;DHT22;5607;48.302;14.294;2023-09-18T15:29:30;26.30;99.90
11107;DHT22;5607;48.302;14.294;2023-09-18T15:32:17;26.10;99.90
11107;DHT22;5607;48.302;14.294;2023-09-18T15:35:04;26.10;99.90
11107;DHT22;5607;48.302;14.294;2023-09-18T15:37:51;26.00;99.90
11107;DHT22;5607;48.302;14.294;2023-09-18T15:40:38;26.10;99.90
11107;DHT22;5607;48.302;14.294;2023-09-18T15:43:27;26.00;99.90
11107;DHT22;5607;48.302;14.294;2023-09-18T15:46:15;25.90;99.90
11107;DHT22;5607;48.302;14.294;2023-09-18T15:49:03;25.60;99.90
11107;DHT22;5607;48.302;14.294;2023-09-18T15:51:50;25.60;99.90
11107;DHT22;5607;48.302;14.294;2023-09-18T15:54:36;25.50;99.90
11107;DHT22;5607;48.302;14.294;2023-09-18T15:57:23;25.60;99.90
11107;DHT22;5607;48.302;14.294;2023-09-18T16:00:09;25.70;99.90
11107;DHT22;5607;48.302;14.294;2023-09-18T16:02:57;25.70;99.90
11107;DHT22;5607;48.302;14.294;2023-09-18T16:05:44;25.70;99.90
11107;DHT22;5607;48.302;14.294;2023-09-18T16:08:37;25.70;99.90
11107;DHT22;5607;48.302;14.294;2023-09-18T16:11:24;25.50;99.90
11107;DHT22;5607;48.302;14.294;2023-09-18T16:14:10;25.10;99.90
11107;DHT22;5607;48.302;14.294;2023-09-18T16:16:56;24.90;99.90
11107;DHT22;5607;48.302;14.294;2023-09-18T16:19:42;24.80;99.90
11107;DHT22;5607;48.302;14.294;2023-09-18T16:22:29;24.60;99.90
11107;DHT22;5607;48.302;14.294;2023-09-18T16:25:15;24.50;99.90
11107;DHT22;5607;48.302;14.294;2023-09-18T16:28:01;24.50;99.90
11107;DHT22;5607;48.302;14.294;2023-09-18T16:30:50;24.40;99.90
11107;DHT22;5607;48.302;14.294;2023-09-18T16:33:36;24.40;99.90
11107;DHT22;5607;48.302;14.294;2023-09-18T16:36:23;24.30;99.90
11107;DHT22;5607;48.302;14.294;2023-09-18T16:39:09;24.30;99.90
11107;DHT22;5607;48.302;14.294;2023-09-18T16:41:55;24.10;99.90
11107;DHT22;5607;48.302;14.294;2023-09-18T16:44:42;24.00;99.90
11107;DHT22;5607;48.302;14.294;2023-09-18T16:47:28;23.90;99.90
11107;DHT22;5607;48.302;14.294;2023-09-18T16:50:17;23.60;99.90
11107;DHT22;5607;48.302;14.294;2023-09-18T16:53:04;23.40;99.90
11107;DHT22;5607;48.302;14.294;2023-09-18T16:55:51;23.40;99.90
11107;DHT22;5607;48.302;14.294;2023-09-18T16:58:37;23.20;99.90
11107;DHT22;5607;48.302;14.294;2023-09-18T17:01:24;23.10;99.90
11107;DHT22;5607;48.302;14.294;2023-09-18T17:04:10;23.00;99.90
11107;DHT22;5607;48.302;14.294;2023-09-18T17:06:59;22.90;99.90
11107;DHT22;5607;48.302;14.294;2023-09-18T17:09:46;22.80;99.90
11107;DHT22;5607;48.302;14.294;2023-09-18T17:12:32;22.70;99.90
11107;DHT22;5607;48.302;14.294;2023-09-18T17:15:23;22.70;99.90
11107;DHT22;5607;48.302;14.294;2023-09-18T17:18:09;22.60;99.90
11107;DHT22;5607;48.302;14.294;2023-09-18T17:20:57;22.70;99.90
11107;DHT22;5607;48.302;14.294;2023-09-18T17:23:43;22.60;99.90
11107;DHT22;5607;48.302;14.294;2023-09-18T17:26:29;22.60;99.90
11107;DHT22;5607;48.302;14.294;2023-09-18T17:29:16;22.50;99.90
11107;DHT22;5607;48.302;14.294;2023-09-18T17:32:03;22.50;99.90
11107;DHT22;5607;48.302;14.294;2023-09-18T17:34:49;22.40;99.90
11107;DHT22;5607;48.302;14.294;2023-09-18T17:37:36;22.40;99.90
11107;DHT22;5607;48.302;14.294;2023-09-18T17:40:22;22.20;99.90